Terminal Aerodrome Forecast
Issued by NWS

Home | Current Version | Previous Version | Text Only | Print | Product List | Glossary On
Versions: 1 2 3 4 5 6 7 8 9 10 11 12 13 14
902
FTUS42 KFFC 171947 AAA
TAFPDK
TAF AMD
KPDK 171947Z 1720/1818 07003KT P6SM BKN030 BKN080 OVC100
      TEMPO 1720/1723 3SM RA BR BKN020
     FM172300 06003KT 6SM BR VCSH BKN025
     FM180100 08002KT 4SM BR BKN015
     FM180400 00000KT 2SM -DZ BR BKN006
     FM181600 28003KT P6SM BKN007 BKN080=

USA.gov is the U.S. government's official web portal to all federal, state and local government web resources and services.